Time;durP1;ratioP1;P1;durP2;ratioP2;P2;SDS_P1;SDS_P2;PMS_P1;PMS_P2;Temp;Humidity;BMP_temperature;BMP_pressure;BME280_temperature;BME280_humidity;BME280_pressure;Samples;Min_cycle;Max_cycle;Signal;HPM_P1;HPM_P2
2024/01/09 00:01:20;;;;;;;2.00;0.77;;;26.10;99.90;;;;;;5090427;28;20206;-78
2024/01/09 00:03:51;;;;;;;2.72;1.02;;;26.10;99.90;;;;;;5090167;28;20183;-77
2024/01/09 00:06:22;;;;;;;1.67;0.50;;;26.20;99.90;;;;;;5090098;28;20195;-79
2024/01/09 00:08:54;;;;;;;3.30;0.88;;;26.20;99.90;;;;;;5092006;28;20206;-78
2024/01/09 00:11:25;;;;;;;4.07;0.93;;;26.20;99.90;;;;;;5104724;28;20741;-78
2024/01/09 00:13:56;;;;;;;2.53;0.70;;;26.20;99.90;;;;;;5108682;28;20593;-78
2024/01/09 00:16:26;;;;;;;6.13;1.23;;;26.10;99.90;;;;;;5090562;28;20290;-79
2024/01/09 00:18:57;;;;;;;3.17;0.77;;;26.20;99.90;;;;;;5090121;28;20222;-78
2024/01/09 00:21:28;;;;;;;4.97;1.08;;;26.30;99.90;;;;;;5090062;28;20566;-79
2024/01/09 00:24:01;;;;;;;3.13;0.98;;;26.30;99.90;;;;;;5093831;28;20275;-78
2024/01/09 00:26:31;;;;;;;6.18;1.13;;;26.30;99.90;;;;;;5091973;28;20615;-78
2024/01/09 00:29:02;;;;;;;2.50;0.70;;;26.30;99.90;;;;;;5101032;28;20723;-78
2024/01/09 00:31:33;;;;;;;2.88;0.90;;;26.20;99.90;;;;;;5103613;28;20195;-78
2024/01/09 00:34:04;;;;;;;2.63;1.00;;;26.30;99.90;;;;;;5097243;28;20418;-78
2024/01/09 00:36:43;;;;;;;4.15;1.10;;;26.10;99.90;;;;;;5110540;28;20198;-78
2024/01/09 00:39:16;;;;;;;4.55;0.90;;;26.10;99.90;;;;;;5109928;28;20738;-78
2024/01/09 00:41:47;;;;;;;3.50;1.10;;;26.10;99.90;;;;;;5101962;28;20214;-79
2024/01/09 00:44:18;;;;;;;4.28;0.70;;;26.10;99.90;;;;;;5089991;28;20201;-79
2024/01/09 00:46:48;;;;;;;4.70;1.10;;;26.00;99.90;;;;;;5099432;28;20192;-78
2024/01/09 00:49:19;;;;;;;5.45;1.20;;;26.10;99.90;;;;;;5109258;28;20235;-78
2024/01/09 00:51:50;;;;;;;3.53;0.90;;;26.10;99.90;;;;;;5093017;28;20198;-78
2024/01/09 00:54:23;;;;;;;4.75;0.90;;;26.20;99.90;;;;;;5095141;28;20205;-78
2024/01/09 00:56:54;;;;;;;3.55;0.90;;;26.20;99.90;;;;;;5097515;28;20194;-78
2024/01/09 00:59:25;;;;;;;3.70;1.00;;;26.20;99.90;;;;;;5093234;28;20219;-78
2024/01/09 01:01:55;;;;;;;5.32;1.00;;;26.30;99.90;;;;;;5093302;28;20203;-78
2024/01/09 01:04:26;;;;;;;2.17;0.63;;;26.30;99.90;;;;;;5103706;28;20194;-78
2024/01/09 01:06:57;;;;;;;2.63;0.77;;;26.20;99.90;;;;;;5112029;28;20205;-79
2024/01/09 01:09:29;;;;;;;6.35;2.58;;;26.20;99.90;;;;;;5105993;27;20201;-78
2024/01/09 01:12:00;;;;;;;2.88;1.08;;;26.30;99.90;;;;;;5098658;28;20210;-78
2024/01/09 01:14:31;;;;;;;3.67;1.10;;;26.30;99.90;;;;;;5093928;28;20209;-80
2024/01/09 01:17:02;;;;;;;3.25;0.80;;;26.40;99.90;;;;;;5093614;28;20248;-77
2024/01/09 01:19:33;;;;;;;2.35;0.80;;;26.70;99.90;;;;;;5092701;28;20225;-79
2024/01/09 01:22:03;;;;;;;2.03;0.63;;;26.70;99.90;;;;;;5093099;28;20575;-79
2024/01/09 01:24:36;;;;;;;3.53;0.93;;;26.70;99.90;;;;;;5093497;28;20227;-79
2024/01/09 01:27:07;;;;;;;3.85;0.88;;;26.70;99.90;;;;;;5092920;28;20209;-80
2024/01/09 01:29:38;;;;;;;4.32;0.90;;;26.60;99.90;;;;;;5093027;28;20206;-81
2024/01/09 01:32:10;;;;;;;3.50;0.88;;;26.70;99.90;;;;;;5095510;28;20285;-81
2024/01/09 01:34:41;;;;;;;2.45;0.88;;;26.80;99.90;;;;;;5111278;28;20693;-81
2024/01/09 01:37:12;;;;;;;2.80;0.80;;;26.70;99.90;;;;;;5096910;28;20199;-79
2024/01/09 01:39:45;;;;;;;3.55;0.73;;;26.70;99.90;;;;;;5092789;28;20674;-80
2024/01/09 01:42:15;;;;;;;3.25;0.90;;;26.80;99.90;;;;;;5093431;28;20203;-79
2024/01/09 01:44:46;;;;;;;3.65;1.00;;;26.90;99.90;;;;;;5092856;28;20221;-79
2024/01/09 01:47:21;;;;;;;4.80;1.15;;;26.90;99.90;;;;;;5092675;28;20207;-78
2024/01/09 01:49:55;;;;;;;4.47;1.13;;;27.00;99.90;;;;;;5109439;28;20206;-76
2024/01/09 01:52:27;;;;;;;5.55;0.80;;;27.00;99.90;;;;;;5106873;28;20283;-78
2024/01/09 01:55:00;;;;;;;4.03;1.00;;;27.00;99.90;;;;;;5098636;28;20199;-78
2024/01/09 01:57:31;;;;;;;3.35;1.20;;;27.20;99.90;;;;;;5099448;28;20195;-77
2024/01/09 02:00:05;;;;;;;3.65;1.10;;;27.20;99.90;;;;;;5092412;28;20250;-78
2024/01/09 02:02:36;;;;;;;3.30;1.30;;;27.30;99.90;;;;;;5102529;28;20221;-78
2024/01/09 02:05:08;;;;;;;4.00;1.17;;;27.40;99.90;;;;;;5096912;28;21009;-78
2024/01/09 02:07:39;;;;;;;3.58;0.98;;;27.40;99.90;;;;;;5108258;28;20222;-78
2024/01/09 02:10:14;;;;;;;4.57;0.90;;;27.40;99.90;;;;;;5092485;28;20217;-78
2024/01/09 02:12:45;;;;;;;3.83;1.30;;;27.20;99.90;;;;;;5094703;28;20205;-79
2024/01/09 02:15:16;;;;;;;4.95;1.30;;;27.10;99.90;;;;;;5113190;28;20224;-79
2024/01/09 02:17:48;;;;;;;3.67;1.00;;;27.20;99.90;;;;;;5112919;28;20201;-79
2024/01/09 02:20:22;;;;;;;2.72;0.77;;;27.20;99.90;;;;;;5103661;28;20303;-79
2024/01/09 02:22:53;;;;;;;2.50;0.68;;;27.20;99.90;;;;;;5107333;28;20210;-79
2024/01/09 02:25:26;;;;;;;4.50;1.00;;;27.30;99.90;;;;;;5098987;28;20224;-79
2024/01/09 02:28:03;;;;;;;3.05;0.70;;;27.40;99.90;;;;;;5087194;28;20211;-79
2024/01/09 02:30:36;;;;;;;3.95;0.80;;;27.50;99.90;;;;;;5103667;28;20259;-80
2024/01/09 02:33:08;;;;;;;4.47;0.93;;;27.60;99.90;;;;;;5089914;28;20654;-76
2024/01/09 02:35:39;;;;;;;2.10;0.80;;;27.60;99.90;;;;;;5083390;28;20227;-78
2024/01/09 02:38:10;;;;;;;2.58;0.80;;;27.70;99.90;;;;;;5090306;28;20685;-78
2024/01/09 02:40:41;;;;;;;2.67;1.20;;;27.60;99.90;;;;;;5092070;28;20230;-78
2024/01/09 02:43:11;;;;;;;2.90;0.75;;;27.50;99.90;;;;;;5090113;28;20249;-79
2024/01/09 02:45:44;;;;;;;4.20;1.15;;;27.60;99.90;;;;;;5088884;28;20221;-78
2024/01/09 02:48:15;;;;;;;4.68;1.08;;;27.60;99.90;;;;;;5089308;28;20227;-78
2024/01/09 02:50:46;;;;;;;3.78;1.27;;;27.50;99.90;;;;;;5088263;28;21370;-78
2024/01/09 02:53:16;;;;;;;3.65;0.80;;;27.60;99.90;;;;;;5096913;28;21589;-77
2024/01/09 02:55:47;;;;;;;3.17;0.75;;;27.60;99.90;;;;;;5104346;28;20222;-78
2024/01/09 02:58:18;;;;;;;1.77;0.60;;;27.50;99.90;;;;;;5091297;28;20202;-78
2024/01/09 03:00:50;;;;;;;3.53;1.10;;;27.50;99.90;;;;;;5111074;28;20234;-79
2024/01/09 03:03:21;;;;;;;3.40;0.80;;;27.50;99.90;;;;;;5111401;28;20564;-78
2024/01/09 03:05:52;;;;;;;1.58;0.57;;;27.60;99.90;;;;;;5109530;28;20187;-77
2024/01/09 03:08:23;;;;;;;3.92;0.90;;;27.50;99.90;;;;;;5109833;28;20200;-78
2024/01/09 03:10:53;;;;;;;2.83;0.73;;;27.50;99.90;;;;;;5090227;28;20191;-78
2024/01/09 03:13:24;;;;;;;2.35;0.85;;;27.40;99.90;;;;;;5092209;28;20195;-78
2024/01/09 03:15:57;;;;;;;3.75;1.13;;;27.30;99.90;;;;;;5104028;28;20271;-79
2024/01/09 03:18:27;;;;;;;2.75;1.00;;;27.40;99.90;;;;;;5099961;28;20237;-78
2024/01/09 03:20:58;;;;;;;2.63;0.80;;;27.30;99.90;;;;;;5090116;28;20336;-79
2024/01/09 03:23:29;;;;;;;5.07;0.90;;;27.30;99.90;;;;;;5091850;28;20202;-79
2024/01/09 03:26:00;;;;;;;4.63;0.93;;;27.30;99.90;;;;;;5095137;28;20205;-79
2024/01/09 03:28:31;;;;;;;3.13;0.80;;;27.20;99.90;;;;;;5090839;28;20218;-79
2024/01/09 03:31:04;;;;;;;5.78;1.00;;;27.10;99.90;;;;;;5100306;28;20191;-79
2024/01/09 03:33:35;;;;;;;3.25;1.17;;;27.00;99.90;;;;;;5111031;28;20191;-79
2024/01/09 03:36:08;;;;;;;3.50;1.20;;;27.00;99.90;;;;;;5109324;28;20194;-80
2024/01/09 03:38:39;;;;;;;5.32;1.30;;;27.10;99.90;;;;;;5106223;28;20192;-79
2024/01/09 03:41:10;;;;;;;5.75;1.20;;;27.00;99.90;;;;;;5095060;28;20215;-79
2024/01/09 03:43:40;;;;;;;4.05;1.08;;;26.90;99.90;;;;;;5092947;28;20219;-79
2024/01/09 03:46:13;;;;;;;6.40;1.25;;;26.90;99.90;;;;;;5090488;28;20203;-79
2024/01/09 03:48:44;;;;;;;4.63;1.40;;;26.90;99.90;;;;;;5105636;28;20230;-79
2024/01/09 03:51:15;;;;;;;4.85;1.27;;;26.90;99.90;;;;;;5110520;28;20194;-82
2024/01/09 03:53:45;;;;;;;4.43;1.27;;;26.90;99.90;;;;;;5110998;28;20231;-79
2024/01/09 03:56:16;;;;;;;5.13;1.10;;;27.00;99.90;;;;;;5110589;28;20550;-80
2024/01/09 03:58:47;;;;;;;5.05;1.33;;;27.00;99.90;;;;;;5110891;28;20195;-79
2024/01/09 04:01:20;;;;;;;3.88;1.40;;;27.00;99.90;;;;;;5093830;28;20573;-80
2024/01/09 04:03:51;;;;;;;5.07;1.83;;;26.90;99.90;;;;;;5091064;28;20205;-78
2024/01/09 04:06:21;;;;;;;4.28;1.38;;;26.90;99.90;;;;;;5090106;28;20585;-78
2024/01/09 04:08:52;;;;;;;6.53;1.65;;;26.80;99.90;;;;;;5092105;28;20259;-78
2024/01/09 04:11:23;;;;;;;5.90;1.70;;;26.80;99.90;;;;;;5110690;28;20741;-79
2024/01/09 04:13:54;;;;;;;5.95;1.55;;;26.80;99.90;;;;;;5110544;28;20201;-80
2024/01/09 04:16:26;;;;;;;4.97;1.45;;;26.70;99.90;;;;;;5093902;28;20210;-78
2024/01/09 04:18:57;;;;;;;5.32;1.63;;;26.70;99.90;;;;;;5092415;28;20206;-79
2024/01/09 04:21:28;;;;;;;5.63;1.50;;;26.70;99.90;;;;;;5090976;28;20235;-78
2024/01/09 04:24:00;;;;;;;8.57;1.80;;;26.80;99.90;;;;;;5094340;28;20218;-79
2024/01/09 04:26:31;;;;;;;6.65;1.88;;;26.70;99.90;;;;;;5094272;28;20203;-80
2024/01/09 04:29:01;;;;;;;6.20;1.52;;;26.80;99.90;;;;;;5094574;28;20296;-79
2024/01/09 04:31:34;;;;;;;5.45;2.05;;;26.70;99.90;;;;;;5094422;28;20670;-79
2024/01/09 04:34:05;;;;;;;7.75;2.28;;;26.60;99.90;;;;;;5094181;28;20202;-78
2024/01/09 04:36:35;;;;;;;6.20;1.63;;;26.70;99.90;;;;;;5094264;28;20199;-78
2024/01/09 04:39:06;;;;;;;11.32;1.95;;;26.70;99.90;;;;;;5095365;28;20204;-79
2024/01/09 04:41:37;;;;;;;3.72;1.48;;;26.80;99.90;;;;;;5099004;28;20206;-78
2024/01/09 04:44:08;;;;;;;4.10;1.27;;;27.00;99.90;;;;;;5114145;28;20201;-79
2024/01/09 04:46:40;;;;;;;10.80;1.70;;;27.10;99.90;;;;;;5114158;28;20215;-79
2024/01/09 04:49:11;;;;;;;3.00;1.25;;;27.20;99.90;;;;;;5113885;28;20226;-79
2024/01/09 04:51:42;;;;;;;3.60;1.20;;;27.30;99.90;;;;;;5114042;28;20194;-78
2024/01/09 04:54:13;;;;;;;5.57;1.63;;;27.40;99.90;;;;;;5114231;28;20691;-78
2024/01/09 04:56:44;;;;;;;3.67;1.20;;;27.50;99.90;;;;;;5097034;28;20206;-79
2024/01/09 04:59:15;;;;;;;5.75;2.10;;;27.60;99.90;;;;;;5094960;28;20199;-79
2024/01/09 05:01:52;;;;;;;3.95;1.70;;;27.60;99.90;;;;;;5093401;28;20222;-78
2024/01/09 05:04:23;;;;;;;3.65;1.90;;;27.80;99.90;;;;;;5093124;28;20199;-79
2024/01/09 05:06:53;;;;;;;6.70;2.63;;;28.00;99.90;;;;;;5101388;28;20191;-79
2024/01/09 05:09:24;;;;;;;5.93;1.40;;;28.00;99.90;;;;;;5093663;28;20286;-78
2024/01/09 05:11:55;;;;;;;3.30;1.10;;;27.80;99.90;;;;;;5094236;28;20188;-78
2024/01/09 05:14:26;;;;;;;2.92;0.90;;;27.70;99.90;;;;;;5095418;28;20202;-78
2024/01/09 05:16:58;;;;;;;4.00;1.10;;;27.60;99.90;;;;;;5093331;28;20206;-78
2024/01/09 05:19:29;;;;;;;3.00;1.20;;;27.50;99.90;;;;;;5093257;28;20192;-78
2024/01/09 05:22:00;;;;;;;4.45;1.45;;;27.50;99.90;;;;;;5093225;28;20222;-78
2024/01/09 05:24:33;;;;;;;3.83;1.13;;;27.60;99.90;;;;;;5093636;28;20203;-78
2024/01/09 05:27:04;;;;;;;4.47;1.23;;;27.50;99.90;;;;;;5093475;28;20202;-79
2024/01/09 05:29:35;;;;;;;4.30;1.30;;;27.40;99.90;;;;;;5098334;28;20198;-79
2024/01/09 05:32:08;;;;;;;4.32;1.30;;;27.50;99.90;;;;;;5093336;28;20685;-79
2024/01/09 05:34:39;;;;;;;6.97;1.48;;;27.50;99.90;;;;;;5092205;28;20207;-79
2024/01/09 05:37:10;;;;;;;4.35;1.30;;;27.70;99.90;;;;;;5098803;28;20675;-78
2024/01/09 05:39:40;;;;;;;6.13;1.40;;;27.60;99.90;;;;;;5113524;28;20308;-78
2024/01/09 05:42:11;;;;;;;4.25;1.38;;;27.70;99.90;;;;;;5113256;28;20233;-78
2024/01/09 05:44:45;;;;;;;3.58;1.00;;;27.60;99.90;;;;;;5113487;28;20620;-78
2024/01/09 05:47:17;;;;;;;3.17;1.00;;;27.30;99.90;;;;;;5111307;28;20198;-79
2024/01/09 05:49:48;;;;;;;4.10;1.05;;;27.20;99.90;;;;;;5111401;28;20213;-78
2024/01/09 05:52:19;;;;;;;3.13;1.13;;;27.20;99.90;;;;;;5112970;28;20571;-79
2024/01/09 05:54:50;;;;;;;2.67;1.23;;;27.20;99.90;;;;;;5112970;28;20186;-79
2024/01/09 05:57:21;;;;;;;4.10;1.20;;;27.10;99.90;;;;;;5113286;28;20205;-78
2024/01/09 05:59:52;;;;;;;5.00;1.20;;;27.00;99.90;;;;;;5113020;28;20199;-77
2024/01/09 06:02:24;;;;;;;4.93;1.10;;;26.90;99.90;;;;;;5111170;28;20230;-78
2024/01/09 06:04:55;;;;;;;3.63;1.30;;;26.90;99.90;;;;;;5111873;28;20199;-78
2024/01/09 06:07:26;;;;;;;4.30;1.17;;;26.90;99.90;;;;;;5110679;28;20206;-78
2024/01/09 06:10:00;;;;;;;5.97;1.38;;;26.80;99.90;;;;;;5101973;28;20568;-79
2024/01/09 06:12:31;;;;;;;3.60;1.23;;;26.80;99.90;;;;;;5092712;28;20207;-78
2024/01/09 06:15:02;;;;;;;5.47;1.40;;;26.80;99.90;;;;;;5112997;28;20201;-78
2024/01/09 06:17:34;;;;;;;5.85;1.60;;;26.60;99.90;;;;;;5112539;28;20285;-78
2024/01/09 06:20:06;;;;;;;2.13;0.90;;;26.60;99.90;;;;;;5098914;28;21029;-79
2024/01/09 06:22:37;;;;;;;3.38;1.20;;;26.60;99.90;;;;;;5106104;28;20716;-79
2024/01/09 06:25:15;;;;;;;6.20;1.20;;;26.50;99.90;;;;;;5110930;28;20241;-78
2024/01/09 06:27:45;;;;;;;3.90;1.00;;;26.50;99.90;;;;;;5092849;28;20670;-78
2024/01/09 06:30:17;;;;;;;4.43;1.02;;;26.50;99.90;;;;;;5098887;28;20226;-78
2024/01/09 06:32:50;;;;;;;2.88;1.08;;;26.50;99.90;;;;;;5111592;28;20184;-78
2024/01/09 06:35:21;;;;;;;5.15;1.08;;;26.50;99.90;;;;;;5104491;28;20198;-78
2024/01/09 06:37:51;;;;;;;2.90;0.90;;;26.40;99.90;;;;;;5103258;28;20201;-79
2024/01/09 06:40:23;;;;;;;3.22;1.00;;;26.40;99.90;;;;;;5100912;28;20680;-79
2024/01/09 06:42:54;;;;;;;2.70;1.13;;;26.30;99.90;;;;;;5112140;28;20603;-78
2024/01/09 06:45:25;;;;;;;3.97;1.30;;;26.30;99.90;;;;;;5105913;28;20233;-79
2024/01/09 06:48:01;;;;;;;5.95;1.33;;;26.20;99.90;;;;;;5111747;28;20262;-79
2024/01/09 06:50:31;;;;;;;4.30;1.17;;;26.20;99.90;;;;;;5111673;28;20297;-79
2024/01/09 06:53:05;;;;;;;4.88;1.25;;;26.20;99.90;;;;;;5107774;27;20195;-79
2024/01/09 06:55:36;;;;;;;4.63;1.40;;;26.20;99.90;;;;;;5102808;28;20293;-79
2024/01/09 06:58:07;;;;;;;3.05;1.20;;;26.20;99.90;;;;;;5112209;28;20198;-78
2024/01/09 07:00:38;;;;;;;4.40;0.90;;;26.10;99.90;;;;;;5105224;28;20239;-79
2024/01/09 07:03:11;;;;;;;1.88;1.00;;;26.10;99.90;;;;;;5096633;28;20195;-78
2024/01/09 07:05:42;;;;;;;4.70;1.13;;;26.10;99.90;;;;;;5092156;28;20196;-78
2024/01/09 07:08:12;;;;;;;4.93;1.20;;;26.10;99.90;;;;;;5092002;28;20210;-79
2024/01/09 07:10:43;;;;;;;4.80;1.20;;;26.10;99.90;;;;;;5091460;28;20200;-78
2024/01/09 07:13:14;;;;;;;6.13;1.42;;;26.00;99.90;;;;;;5092948;28;20192;-79
2024/01/09 07:15:48;;;;;;;2.13;1.15;;;25.90;99.90;;;;;;5097784;28;20191;-79
2024/01/09 07:18:22;;;;;;;2.42;1.08;;;25.90;99.90;;;;;;5092980;28;20222;-79
2024/01/09 07:20:54;;;;;;;3.97;1.48;;;25.90;99.90;;;;;;5092507;28;20227;-79
2024/01/09 07:23:28;;;;;;;4.93;1.70;;;25.90;99.90;;;;;;5093087;28;20196;-78
2024/01/09 07:25:59;;;;;;;5.43;1.55;;;25.90;99.90;;;;;;5092925;28;20195;-79
2024/01/09 07:28:30;;;;;;;4.80;1.75;;;25.80;99.90;;;;;;5103171;28;20236;-80
2024/01/09 07:31:00;;;;;;;3.83;1.33;;;25.70;99.90;;;;;;5111630;28;20198;-80
2024/01/09 07:33:33;;;;;;;5.13;1.45;;;25.60;99.90;;;;;;5097058;28;20207;-80
2024/01/09 07:36:04;;;;;;;5.88;1.63;;;25.60;99.90;;;;;;5095641;28;20228;-79
2024/01/09 07:38:35;;;;;;;6.20;1.88;;;25.50;99.90;;;;;;5095499;28;20236;-80
2024/01/09 07:41:05;;;;;;;5.40;1.50;;;25.50;99.90;;;;;;5105232;28;20818;-80
2024/01/09 07:43:36;;;;;;;5.15;1.52;;;25.50;99.90;;;;;;5105211;28;20200;-78
2024/01/09 07:46:07;;;;;;;5.82;1.58;;;25.50;99.90;;;;;;5099337;28;20219;-79
2024/01/09 07:48:40;;;;;;;4.65;1.42;;;25.50;99.90;;;;;;5092385;28;20603;-79
2024/01/09 07:51:10;;;;;;;6.28;1.67;;;25.40;99.90;;;;;;5109238;28;20198;-79
2024/01/09 07:53:41;;;;;;;5.95;1.50;;;25.40;99.90;;;;;;5110852;28;20209;-79
2024/01/09 07:56:21;;;;;;;5.55;2.00;;;25.40;99.90;;;;;;5108745;28;20196;-78
2024/01/09 07:58:52;;;;;;;4.95;1.98;;;25.40;99.90;;;;;;5097367;28;20194;-80
2024/01/09 08:01:24;;;;;;;6.30;1.95;;;25.40;99.90;;;;;;5096880;28;20646;-80
2024/01/09 08:03:59;;;;;;;6.88;1.90;;;25.40;99.90;;;;;;5099758;28;20240;-79
2024/01/09 08:06:30;;;;;;;4.47;1.55;;;25.50;99.90;;;;;;5110738;28;20197;-79
2024/01/09 08:09:01;;;;;;;5.82;1.50;;;25.50;99.90;;;;;;5092878;28;20202;-79
2024/01/09 08:11:32;;;;;;;7.72;1.80;;;25.50;99.90;;;;;;5090907;28;20278;-79
2024/01/09 08:14:02;;;;;;;5.97;1.77;;;25.50;99.90;;;;;;5090145;28;20273;-79
2024/01/09 08:16:33;;;;;;;4.82;1.42;;;25.50;99.90;;;;;;5100662;28;20199;-79
2024/01/09 08:19:06;;;;;;;7.45;1.70;;;25.50;99.90;;;;;;5106628;28;20213;-78
2024/01/09 08:21:37;;;;;;;5.47;1.40;;;25.50;99.90;;;;;;5100527;28;20222;-79
2024/01/09 08:24:08;;;;;;;4.75;1.10;;;25.40;99.90;;;;;;5090369;28;20260;-79
2024/01/09 08:26:40;;;;;;;6.50;1.63;;;25.30;99.90;;;;;;5094592;28;20188;-78
2024/01/09 08:29:11;;;;;;;7.55;1.80;;;25.30;99.90;;;;;;5089972;28;20543;-79
2024/01/09 08:31:47;;;;;;;6.22;1.50;;;25.30;99.90;;;;;;5096007;28;20222;-78
2024/01/09 08:34:19;;;;;;;5.95;1.92;;;25.30;99.90;;;;;;5091622;28;20655;-78
2024/01/09 08:36:50;;;;;;;4.25;1.70;;;25.20;99.90;;;;;;5101885;28;20538;-78
2024/01/09 08:39:21;;;;;;;5.50;1.48;;;25.20;99.90;;;;;;5089739;28;20214;-78
2024/01/09 08:41:53;;;;;;;5.53;1.60;;;25.20;99.90;;;;;;5089969;28;20231;-79
2024/01/09 08:44:25;;;;;;;3.90;1.30;;;25.20;99.90;;;;;;5090037;28;20206;-80
2024/01/09 08:46:56;;;;;;;3.00;1.40;;;25.10;99.90;;;;;;5102121;28;20218;-80
2024/01/09 08:49:29;;;;;;;5.03;1.60;;;25.10;99.90;;;;;;5108920;28;20589;-80
2024/01/09 08:52:00;;;;;;;5.55;2.00;;;25.20;99.90;;;;;;5110062;28;20217;-80
2024/01/09 08:54:31;;;;;;;4.50;1.63;;;25.20;99.90;;;;;;5109194;28;20245;-80
2024/01/09 08:57:02;;;;;;;3.63;1.35;;;25.20;99.90;;;;;;5103955;28;20199;-80
2024/01/09 08:59:32;;;;;;;5.75;1.70;;;25.20;99.90;;;;;;5093349;28;20191;-80
2024/01/09 09:02:03;;;;;;;6.15;1.60;;;25.20;99.90;;;;;;5102170;28;20265;-80
2024/01/09 09:04:36;;;;;;;5.35;1.52;;;25.20;99.90;;;;;;5093129;28;20195;-80
2024/01/09 09:07:07;;;;;;;4.20;1.25;;;25.20;99.90;;;;;;5090269;28;20188;-80
2024/01/09 09:09:41;;;;;;;6.15;1.60;;;25.20;99.90;;;;;;5093319;28;20226;-80
2024/01/09 09:12:12;;;;;;;5.22;1.45;;;25.10;99.90;;;;;;5113925;28;20213;-80
2024/01/09 09:14:43;;;;;;;5.32;1.50;;;25.20;99.90;;;;;;5111365;28;20206;-80
2024/01/09 09:17:15;;;;;;;4.43;1.55;;;25.10;99.90;;;;;;5106346;28;20223;-80
2024/01/09 09:19:48;;;;;;;3.88;1.30;;;25.10;99.90;;;;;;5116998;28;20657;-80
2024/01/09 09:22:19;;;;;;;5.32;1.48;;;25.10;99.90;;;;;;5109088;28;20241;-80
2024/01/09 09:24:49;;;;;;;4.72;1.30;;;25.10;99.90;;;;;;5113801;28;20198;-80
2024/01/09 09:27:20;;;;;;;5.35;1.38;;;25.10;99.90;;;;;;5108296;28;20207;-80
2024/01/09 09:29:52;;;;;;;5.20;1.17;;;25.10;99.90;;;;;;5093557;28;20539;-80
2024/01/09 09:32:25;;;;;;;6.47;1.48;;;25.00;99.90;;;;;;5093060;28;20203;-80
2024/01/09 09:35:01;;;;;;;3.83;1.10;;;25.00;99.90;;;;;;5100261;28;20230;-79
2024/01/09 09:37:32;;;;;;;5.68;1.63;;;25.00;99.90;;;;;;5107739;28;20220;-80
2024/01/09 09:40:03;;;;;;;6.90;1.77;;;25.00;99.90;;;;;;5106505;28;20201;-81
2024/01/09 09:42:35;;;;;;;5.45;1.65;;;25.00;99.90;;;;;;5102526;28;20308;-80
2024/01/09 09:45:12;;;;;;;6.30;1.50;;;25.00;99.90;;;;;;5106555;28;20233;-81
2024/01/09 09:47:43;;;;;;;7.72;1.48;;;25.00;99.90;;;;;;5112802;28;20226;-79
2024/01/09 09:50:17;;;;;;;6.15;1.40;;;24.90;99.90;;;;;;5107906;28;20200;-79
2024/01/09 09:52:47;;;;;;;5.15;1.45;;;24.90;99.90;;;;;;5091435;28;20650;-79
2024/01/09 09:55:19;;;;;;;6.90;1.67;;;24.90;99.90;;;;;;5092927;28;20611;-79
2024/01/09 09:57:49;;;;;;;5.15;1.33;;;24.90;99.90;;;;;;5092424;28;20196;-80
2024/01/09 10:00:21;;;;;;;7.43;1.33;;;24.90;99.90;;;;;;5092704;28;20554;-80
2024/01/09 10:02:52;;;;;;;5.47;1.33;;;24.90;99.90;;;;;;5091938;28;20229;-81
2024/01/09 10:05:26;;;;;;;3.55;1.15;;;24.90;99.90;;;;;;5092286;28;20670;-80
2024/01/09 10:08:06;;;;;;;7.53;1.60;;;25.00;99.90;;;;;;5092426;28;20192;-79
2024/01/09 10:10:36;;;;;;;5.80;1.67;;;25.00;99.90;;;;;;5094292;28;20191;-82
2024/01/09 10:13:07;;;;;;;8.07;2.53;;;24.90;99.90;;;;;;5105903;28;20213;-80
2024/01/09 10:15:57;;;;;;;7.25;1.80;;;24.90;99.90;;;;;;5092073;28;20202;-81
2024/01/09 10:18:32;;;;;;;6.88;1.55;;;24.90;99.90;;;;;;5097731;28;20209;-80
2024/01/09 10:21:05;;;;;;;6.60;1.77;;;24.90;99.90;;;;;;5102529;28;20282;-80
2024/01/09 10:23:39;;;;;;;6.20;1.85;;;24.90;99.90;;;;;;5092430;28;20694;-79
2024/01/09 10:26:13;;;;;;;7.25;1.48;;;24.90;99.90;;;;;;5092511;28;20191;-80
2024/01/09 10:28:44;;;;;;;7.30;1.80;;;24.90;99.90;;;;;;5092580;28;20257;-80
2024/01/09 10:31:16;;;;;;;10.07;2.00;;;24.90;99.90;;;;;;5090479;28;20218;-78
2024/01/09 10:33:46;;;;;;;5.45;1.48;;;24.90;99.90;;;;;;5091986;28;20203;-79
2024/01/09 10:36:19;;;;;;;7.85;1.88;;;24.90;99.90;;;;;;5092051;28;20205;-79
2024/01/09 10:38:50;;;;;;;6.78;1.45;;;24.90;99.90;;;;;;5094402;28;20670;-79
2024/01/09 10:41:23;;;;;;;7.85;1.70;;;24.90;99.90;;;;;;5100105;28;20178;-78
2024/01/09 10:43:54;;;;;;;11.18;2.20;;;24.90;99.90;;;;;;5112251;28;20222;-77
2024/01/09 10:46:29;;;;;;;6.53;1.42;;;24.80;99.90;;;;;;5106803;28;20708;-80
2024/01/09 10:49:01;;;;;;;7.55;1.80;;;24.80;99.90;;;;;;5108367;28;20225;-80
2024/01/09 10:51:35;;;;;;;7.47;1.95;;;24.80;99.90;;;;;;5097697;28;20188;-80
2024/01/09 10:54:08;;;;;;;9.25;1.90;;;24.80;99.90;;;;;;5092696;28;20206;-80
2024/01/09 10:56:39;;;;;;;7.13;1.77;;;24.80;99.90;;;;;;5109254;28;20190;-80
2024/01/09 10:59:13;;;;;;;8.38;2.03;;;24.80;99.90;;;;;;5112008;28;20198;-80
2024/01/09 11:01:50;;;;;;;9.13;2.30;;;24.70;99.90;;;;;;5090989;28;20202;-81
2024/01/09 11:04:20;;;;;;;6.40;1.50;;;24.70;99.90;;;;;;5102182;28;21011;-81
2024/01/09 11:06:55;;;;;;;7.82;1.85;;;24.70;99.90;;;;;;5091722;28;20191;-81
2024/01/09 11:09:27;;;;;;;8.55;2.08;;;24.70;99.90;;;;;;5091453;28;20210;-79
2024/01/09 11:11:59;;;;;;;6.85;2.10;;;24.80;99.90;;;;;;5100678;28;20211;-80
2024/01/09 11:14:30;;;;;;;5.63;1.67;;;24.70;99.90;;;;;;5091429;28;20213;-80
2024/01/09 11:17:03;;;;;;;6.13;1.58;;;24.60;99.90;;;;;;5091198;28;20225;-80
2024/01/09 11:19:34;;;;;;;7.40;1.85;;;24.60;99.90;;;;;;5093012;28;20218;-80
2024/01/09 11:22:18;;;;;;;6.43;1.90;;;24.60;99.90;;;;;;5090826;28;20203;-79
2024/01/09 11:24:50;;;;;;;8.45;2.15;;;24.60;99.90;;;;;;5102324;28;20212;-80
2024/01/09 11:27:20;;;;;;;7.72;1.70;;;24.60;99.90;;;;;;5097646;28;20199;-79
2024/01/09 11:29:52;;;;;;;9.85;1.98;;;24.70;99.90;;;;;;5091179;28;20205;-80
2024/01/09 11:32:30;;;;;;;6.68;1.85;;;24.60;99.90;;;;;;5089835;28;20240;-80
2024/01/09 11:35:14;;;;;;;8.73;1.77;;;24.60;99.90;;;;;;5102321;28;20234;-80
2024/01/09 11:37:47;;;;;;;7.38;1.90;;;24.70;99.90;;;;;;5091147;28;20199;-80
2024/01/09 11:40:19;;;;;;;7.35;1.63;;;24.60;99.90;;;;;;5090257;28;20730;-79
2024/01/09 11:42:51;;;;;;;7.57;1.45;;;24.60;99.90;;;;;;5090643;28;20230;-80
2024/01/09 11:45:24;;;;;;;7.45;1.80;;;24.60;99.90;;;;;;5090474;28;20554;-79
2024/01/09 11:47:56;;;;;;;6.60;1.85;;;24.60;99.90;;;;;;5090897;28;20227;-80
2024/01/09 11:50:27;;;;;;;6.72;1.70;;;24.60;99.90;;;;;;5106007;28;20198;-80
2024/01/09 11:53:03;;;;;;;9.10;1.73;;;24.60;99.90;;;;;;5092754;28;20202;-80
2024/01/09 11:55:34;;;;;;;8.27;2.13;;;24.60;99.90;;;;;;5090662;28;20199;-80
2024/01/09 11:58:04;;;;;;;7.97;1.80;;;24.60;99.90;;;;;;5096673;28;20198;-80
2024/01/09 12:00:38;;;;;;;8.18;1.80;;;24.60;99.90;;;;;;5105197;28;20369;-80
2024/01/09 12:03:09;;;;;;;7.25;1.83;;;24.60;99.90;;;;;;5105093;28;20619;-80
2024/01/09 12:05:40;;;;;;;7.90;1.70;;;24.50;99.90;;;;;;5090743;28;20203;-79
2024/01/09 12:08:13;;;;;;;5.35;1.40;;;24.50;99.90;;;;;;5089780;28;20206;-79
2024/01/09 12:10:47;;;;;;;7.00;1.70;;;24.50;99.90;;;;;;5090567;28;20206;-79
2024/01/09 12:13:20;;;;;;;6.90;1.90;;;24.60;99.90;;;;;;5089557;28;20210;-79
2024/01/09 12:15:51;;;;;;;7.78;1.98;;;24.60;99.90;;;;;;5090695;28;20205;-79
2024/01/09 12:18:22;;;;;;;9.32;1.75;;;24.60;99.90;;;;;;5091432;28;20201;-79
2024/01/09 12:20:53;;;;;;;7.43;1.63;;;24.50;99.90;;;;;;5093637;28;20217;-79
2024/01/09 12:23:25;;;;;;;5.38;1.58;;;24.50;99.90;;;;;;5094982;28;20214;-80
2024/01/09 12:25:56;;;;;;;5.88;1.80;;;24.50;99.90;;;;;;5095734;28;20665;-80
2024/01/09 12:28:27;;;;;;;7.00;1.60;;;24.50;99.90;;;;;;5094337;28;20191;-80
2024/01/09 12:30:58;;;;;;;8.63;1.63;;;24.50;99.90;;;;;;5093868;28;20207;-80
2024/01/09 12:33:29;;;;;;;5.85;1.60;;;24.50;99.90;;;;;;5091836;28;20199;-79
2024/01/09 12:36:00;;;;;;;6.75;1.48;;;24.50;99.90;;;;;;5091986;28;20199;-79
2024/01/09 12:38:33;;;;;;;5.20;1.50;;;24.50;99.90;;;;;;5099023;28;20199;-79
2024/01/09 12:41:04;;;;;;;4.93;1.70;;;24.50;99.90;;;;;;5107965;28;20213;-80
2024/01/09 12:43:36;;;;;;;6.00;1.65;;;24.50;99.90;;;;;;5113491;28;20228;-80
2024/01/09 12:46:08;;;;;;;6.10;1.50;;;24.50;99.90;;;;;;5105059;28;20234;-79
2024/01/09 12:48:42;;;;;;;8.10;1.60;;;24.50;99.90;;;;;;5104472;28;20226;-80
2024/01/09 12:51:13;;;;;;;7.65;1.58;;;24.50;99.90;;;;;;5109905;28;20274;-80
2024/01/09 12:53:45;;;;;;;7.22;1.88;;;24.50;99.90;;;;;;5094206;28;20290;-80
2024/01/09 12:56:17;;;;;;;5.82;1.60;;;24.50;99.90;;;;;;5093791;28;20221;-80
2024/01/09 12:58:48;;;;;;;7.10;1.67;;;24.50;99.90;;;;;;5093642;28;20195;-80
2024/01/09 13:01:19;;;;;;;5.43;1.45;;;24.50;99.90;;;;;;5107871;28;20236;-79
2024/01/09 13:03:51;;;;;;;8.60;2.00;;;24.50;99.90;;;;;;5091750;28;20230;-79
2024/01/09 13:06:22;;;;;;;5.68;1.90;;;24.50;99.90;;;;;;5093739;28;20203;-79
2024/01/09 13:08:55;;;;;;;6.53;1.63;;;24.50;99.90;;;;;;5097133;28;20206;-78